Terminal Aerodrome Forecast
Issued by NWS

Home | Current Version | Previous Version | Text Only | Print | Product List | Glossary On
Versions: 1 2 3 4 5 6 7 8 9 10 11 12 13 14 15 16 17 18 19 20
000
FTUS44 KLZK 271133
TAFHOT
TAF
KHOT 271133Z 2712/2812 07006KT P6SM VCSH BKN025 OVC050
     FM271600 21008G15KT P6SM VCSH SCT030 BKN080
     FM271800 25010G20KT P6SM SCT030 BKN250=

USA.gov is the U.S. government's official web portal to all federal, state and local government web resources and services.